sensor_id;sensor_type;location;lat;lon;timestamp;P1;durP1;ratioP1;P2;durP2;ratioP2
68076;SDS011;54866;53.458;14.540;2022-07-23T00:01:57;10.80;;;7.20;;
68076;SDS011;54866;53.458;14.540;2022-07-23T00:04:27;11.40;;;7.40;;
68076;SDS011;54866;53.458;14.540;2022-07-23T00:06:56;8.80;;;7.10;;
68076;SDS011;54866;53.458;14.540;2022-07-23T00:09:26;9.10;;;7.00;;
68076;SDS011;54866;53.458;14.540;2022-07-23T00:11:57;8.70;;;6.40;;
68076;SDS011;54866;53.458;14.540;2022-07-23T00:14:27;8.90;;;5.90;;
68076;SDS011;54866;53.458;14.540;2022-07-23T00:16:57;8.00;;;5.70;;
68076;SDS011;54866;53.458;14.540;2022-07-23T00:19:26;8.80;;;6.00;;
68076;SDS011;54866;53.458;14.540;2022-07-23T00:21:56;7.60;;;5.70;;
68076;SDS011;54866;53.458;14.540;2022-07-23T00:24:26;9.40;;;5.70;;
68076;SDS011;54866;53.458;14.540;2022-07-23T00:26:56;6.10;;;5.40;;
68076;SDS011;54866;53.458;14.540;2022-07-23T00:29:25;7.20;;;5.20;;
68076;SDS011;54866;53.458;14.540;2022-07-23T00:31:55;8.10;;;5.50;;
68076;SDS011;54866;53.458;14.540;2022-07-23T00:34:25;8.80;;;5.50;;
68076;SDS011;54866;53.458;14.540;2022-07-23T00:36:55;7.90;;;5.60;;
68076;SDS011;54866;53.458;14.540;2022-07-23T00:39:24;8.80;;;4.90;;
68076;SDS011;54866;53.458;14.540;2022-07-23T00:41:55;8.30;;;4.70;;
68076;SDS011;54866;53.458;14.540;2022-07-23T00:44:25;7.40;;;5.50;;
68076;SDS011;54866;53.458;14.540;2022-07-23T00:46:56;7.30;;;4.60;;
68076;SDS011;54866;53.458;14.540;2022-07-23T00:49:27;5.60;;;3.70;;
68076;SDS011;54866;53.458;14.540;2022-07-23T00:51:58;8.10;;;4.90;;
68076;SDS011;54866;53.458;14.540;2022-07-23T00:54:30;6.80;;;4.20;;
68076;SDS011;54866;53.458;14.540;2022-07-23T00:57:00;6.00;;;4.20;;
68076;SDS011;54866;53.458;14.540;2022-07-23T00:59:30;5.60;;;4.10;;
68076;SDS011;54866;53.458;14.540;2022-07-23T01:02:00;5.80;;;3.90;;
68076;SDS011;54866;53.458;14.540;2022-07-23T01:04:30;6.90;;;4.00;;
68076;SDS011;54866;53.458;14.540;2022-07-23T01:07:00;8.90;;;4.30;;
68076;SDS011;54866;53.458;14.540;2022-07-23T01:09:30;5.00;;;3.90;;
68076;SDS011;54866;53.458;14.540;2022-07-23T01:12:01;5.70;;;3.60;;
68076;SDS011;54866;53.458;14.540;2022-07-23T01:14:32;4.50;;;3.30;;
68076;SDS011;54866;53.458;14.540;2022-07-23T01:17:02;10.00;;;4.30;;
68076;SDS011;54866;53.458;14.540;2022-07-23T01:19:33;6.90;;;3.80;;
68076;SDS011;54866;53.458;14.540;2022-07-23T01:22:03;6.10;;;3.50;;
68076;SDS011;54866;53.458;14.540;2022-07-23T01:24:33;8.10;;;4.00;;
68076;SDS011;54866;53.458;14.540;2022-07-23T01:27:03;7.70;;;3.50;;
68076;SDS011;54866;53.458;14.540;2022-07-23T01:29:33;8.20;;;3.90;;
68076;SDS011;54866;53.458;14.540;2022-07-23T01:32:03;3.80;;;2.90;;
68076;SDS011;54866;53.458;14.540;2022-07-23T01:34:33;5.20;;;3.30;;
68076;SDS011;54866;53.458;14.540;2022-07-23T01:37:03;6.10;;;3.40;;
68076;SDS011;54866;53.458;14.540;2022-07-23T01:39:33;9.00;;;3.40;;
68076;SDS011;54866;53.458;14.540;2022-07-23T01:42:02;7.50;;;3.60;;
68076;SDS011;54866;53.458;14.540;2022-07-23T01:44:32;5.10;;;3.40;;
68076;SDS011;54866;53.458;14.540;2022-07-23T01:47:03;5.70;;;3.80;;
68076;SDS011;54866;53.458;14.540;2022-07-23T01:49:32;5.70;;;3.10;;
68076;SDS011;54866;53.458;14.540;2022-07-23T01:52:02;7.20;;;3.90;;
68076;SDS011;54866;53.458;14.540;2022-07-23T01:54:35;6.50;;;3.70;;
68076;SDS011;54866;53.458;14.540;2022-07-23T01:57:06;6.30;;;3.10;;
68076;SDS011;54866;53.458;14.540;2022-07-23T01:59:36;4.70;;;3.30;;
68076;SDS011;54866;53.458;14.540;2022-07-23T02:02:06;5.80;;;3.60;;
68076;SDS011;54866;53.458;14.540;2022-07-23T02:04:36;6.90;;;3.30;;
68076;SDS011;54866;53.458;14.540;2022-07-23T02:07:06;6.30;;;3.40;;
68076;SDS011;54866;53.458;14.540;2022-07-23T02:09:35;6.00;;;3.50;;
68076;SDS011;54866;53.458;14.540;2022-07-23T02:12:05;6.30;;;3.40;;
68076;SDS011;54866;53.458;14.540;2022-07-23T02:14:35;5.10;;;3.10;;
68076;SDS011;54866;53.458;14.540;2022-07-23T02:17:05;5.40;;;2.90;;
68076;SDS011;54866;53.458;14.540;2022-07-23T02:19:35;4.20;;;2.90;;
68076;SDS011;54866;53.458;14.540;2022-07-23T02:22:05;6.60;;;3.10;;
68076;SDS011;54866;53.458;14.540;2022-07-23T02:24:34;5.20;;;2.60;;
68076;SDS011;54866;53.458;14.540;2022-07-23T02:27:04;7.20;;;2.70;;
68076;SDS011;54866;53.458;14.540;2022-07-23T02:29:34;5.50;;;2.70;;
68076;SDS011;54866;53.458;14.540;2022-07-23T02:32:04;5.00;;;2.70;;
68076;SDS011;54866;53.458;14.540;2022-07-23T02:34:34;5.30;;;3.00;;
68076;SDS011;54866;53.458;14.540;2022-07-23T02:37:04;7.00;;;3.10;;
68076;SDS011;54866;53.458;14.540;2022-07-23T02:39:35;4.60;;;3.60;;
68076;SDS011;54866;53.458;14.540;2022-07-23T02:42:05;6.40;;;2.90;;
68076;SDS011;54866;53.458;14.540;2022-07-23T02:44:35;4.20;;;3.10;;
68076;SDS011;54866;53.458;14.540;2022-07-23T02:47:05;3.70;;;2.80;;
68076;SDS011;54866;53.458;14.540;2022-07-23T02:49:35;6.30;;;3.40;;
68076;SDS011;54866;53.458;14.540;2022-07-23T02:52:05;5.20;;;3.60;;
68076;SDS011;54866;53.458;14.540;2022-07-23T02:54:36;4.00;;;2.60;;
68076;SDS011;54866;53.458;14.540;2022-07-23T02:57:06;6.90;;;3.60;;
68076;SDS011;54866;53.458;14.540;2022-07-23T02:59:36;8.20;;;3.00;;
68076;SDS011;54866;53.458;14.540;2022-07-23T03:02:06;6.80;;;2.50;;
68076;SDS011;54866;53.458;14.540;2022-07-23T03:04:35;4.90;;;2.30;;
68076;SDS011;54866;53.458;14.540;2022-07-23T03:07:05;5.70;;;3.00;;
68076;SDS011;54866;53.458;14.540;2022-07-23T03:09:35;5.00;;;3.10;;
68076;SDS011;54866;53.458;14.540;2022-07-23T03:12:05;5.00;;;2.50;;
68076;SDS011;54866;53.458;14.540;2022-07-23T03:14:36;6.00;;;2.60;;
68076;SDS011;54866;53.458;14.540;2022-07-23T03:17:06;5.70;;;2.60;;
68076;SDS011;54866;53.458;14.540;2022-07-23T03:19:36;5.40;;;2.10;;
68076;SDS011;54866;53.458;14.540;2022-07-23T03:22:05;3.40;;;2.20;;
68076;SDS011;54866;53.458;14.540;2022-07-23T03:24:35;5.40;;;2.60;;
68076;SDS011;54866;53.458;14.540;2022-07-23T03:27:24;4.80;;;2.20;;
68076;SDS011;54866;53.458;14.540;2022-07-23T03:29:56;4.10;;;2.20;;
68076;SDS011;54866;53.458;14.540;2022-07-23T03:32:27;3.70;;;1.90;;
68076;SDS011;54866;53.458;14.540;2022-07-23T03:34:58;4.70;;;1.90;;
68076;SDS011;54866;53.458;14.540;2022-07-23T03:37:27;4.60;;;2.00;;
68076;SDS011;54866;53.458;14.540;2022-07-23T03:39:57;3.20;;;2.30;;
68076;SDS011;54866;53.458;14.540;2022-07-23T03:42:27;5.40;;;2.70;;
68076;SDS011;54866;53.458;14.540;2022-07-23T03:44:56;4.00;;;2.10;;
68076;SDS011;54866;53.458;14.540;2022-07-23T03:47:27;3.30;;;1.90;;
68076;SDS011;54866;53.458;14.540;2022-07-23T03:49:57;6.50;;;2.40;;
68076;SDS011;54866;53.458;14.540;2022-07-23T03:52:27;4.70;;;2.60;;
68076;SDS011;54866;53.458;14.540;2022-07-23T03:54:56;3.30;;;1.90;;
68076;SDS011;54866;53.458;14.540;2022-07-23T03:57:26;3.30;;;2.10;;
68076;SDS011;54866;53.458;14.540;2022-07-23T03:59:56;5.50;;;1.90;;
68076;SDS011;54866;53.458;14.540;2022-07-23T04:02:26;3.60;;;2.10;;
68076;SDS011;54866;53.458;14.540;2022-07-23T04:04:56;6.00;;;1.50;;
68076;SDS011;54866;53.458;14.540;2022-07-23T04:07:26;7.20;;;2.00;;
68076;SDS011;54866;53.458;14.540;2022-07-23T04:09:55;4.30;;;1.80;;
68076;SDS011;54866;53.458;14.540;2022-07-23T04:12:26;5.40;;;2.20;;
68076;SDS011;54866;53.458;14.540;2022-07-23T04:14:56;3.80;;;1.90;;
68076;SDS011;54866;53.458;14.540;2022-07-23T04:17:25;4.40;;;1.90;;
68076;SDS011;54866;53.458;14.540;2022-07-23T04:19:55;5.20;;;1.80;;
68076;SDS011;54866;53.458;14.540;2022-07-23T04:22:25;5.70;;;1.90;;
68076;SDS011;54866;53.458;14.540;2022-07-23T04:24:55;3.90;;;1.90;;
68076;SDS011;54866;53.458;14.540;2022-07-23T04:27:25;4.30;;;2.00;;
68076;SDS011;54866;53.458;14.540;2022-07-23T04:29:55;2.70;;;1.80;;
68076;SDS011;54866;53.458;14.540;2022-07-23T04:32:24;3.80;;;2.40;;
68076;SDS011;54866;53.458;14.540;2022-07-23T04:34:54;4.50;;;1.90;;
68076;SDS011;54866;53.458;14.540;2022-07-23T04:37:24;5.80;;;2.10;;
68076;SDS011;54866;53.458;14.540;2022-07-23T04:39:54;4.80;;;2.00;;
68076;SDS011;54866;53.458;14.540;2022-07-23T04:42:24;7.20;;;3.10;;
68076;SDS011;54866;53.458;14.540;2022-07-23T04:44:53;5.30;;;2.10;;
68076;SDS011;54866;53.458;14.540;2022-07-23T04:47:23;6.60;;;2.10;;
68076;SDS011;54866;53.458;14.540;2022-07-23T04:49:53;4.20;;;2.10;;
68076;SDS011;54866;53.458;14.540;2022-07-23T04:52:23;4.50;;;2.10;;
68076;SDS011;54866;53.458;14.540;2022-07-23T04:54:53;5.30;;;2.30;;
68076;SDS011;54866;53.458;14.540;2022-07-23T04:57:23;4.70;;;2.40;;
68076;SDS011;54866;53.458;14.540;2022-07-23T04:59:53;3.70;;;1.90;;
68076;SDS011;54866;53.458;14.540;2022-07-23T05:02:23;3.70;;;1.70;;
68076;SDS011;54866;53.458;14.540;2022-07-23T05:04:53;6.00;;;1.70;;
68076;SDS011;54866;53.458;14.540;2022-07-23T05:07:22;4.80;;;2.00;;
68076;SDS011;54866;53.458;14.540;2022-07-23T05:09:52;3.40;;;1.70;;
68076;SDS011;54866;53.458;14.540;2022-07-23T05:12:22;4.10;;;1.80;;
68076;SDS011;54866;53.458;14.540;2022-07-23T05:14:52;3.70;;;1.40;;
68076;SDS011;54866;53.458;14.540;2022-07-23T05:17:21;3.70;;;1.60;;
68076;SDS011;54866;53.458;14.540;2022-07-23T05:19:51;3.80;;;1.60;;
68076;SDS011;54866;53.458;14.540;2022-07-23T05:22:21;3.90;;;1.80;;
68076;SDS011;54866;53.458;14.540;2022-07-23T05:24:51;2.60;;;1.80;;
68076;SDS011;54866;53.458;14.540;2022-07-23T05:27:20;4.20;;;1.40;;
68076;SDS011;54866;53.458;14.540;2022-07-23T05:29:50;2.90;;;1.30;;
68076;SDS011;54866;53.458;14.540;2022-07-23T05:32:20;4.20;;;1.60;;
68076;SDS011;54866;53.458;14.540;2022-07-23T05:34:50;3.60;;;1.70;;
68076;SDS011;54866;53.458;14.540;2022-07-23T05:37:20;3.40;;;1.30;;
68076;SDS011;54866;53.458;14.540;2022-07-23T05:39:49;4.40;;;1.70;;
68076;SDS011;54866;53.458;14.540;2022-07-23T05:42:19;4.00;;;1.60;;
68076;SDS011;54866;53.458;14.540;2022-07-23T05:44:49;4.00;;;1.90;;
68076;SDS011;54866;53.458;14.540;2022-07-23T05:47:19;2.90;;;1.30;;
68076;SDS011;54866;53.458;14.540;2022-07-23T05:49:48;4.20;;;1.60;;
68076;SDS011;54866;53.458;14.540;2022-07-23T05:52:18;3.50;;;1.80;;
68076;SDS011;54866;53.458;14.540;2022-07-23T05:54:48;4.00;;;1.50;;
68076;SDS011;54866;53.458;14.540;2022-07-23T05:57:18;4.70;;;2.20;;
68076;SDS011;54866;53.458;14.540;2022-07-23T05:59:47;4.00;;;1.40;;
68076;SDS011;54866;53.458;14.540;2022-07-23T06:02:17;4.40;;;2.20;;
68076;SDS011;54866;53.458;14.540;2022-07-23T06:04:47;4.10;;;1.60;;
68076;SDS011;54866;53.458;14.540;2022-07-23T06:07:16;4.70;;;1.40;;
68076;SDS011;54866;53.458;14.540;2022-07-23T06:09:46;3.80;;;1.60;;
68076;SDS011;54866;53.458;14.540;2022-07-23T06:12:16;3.30;;;1.70;;
68076;SDS011;54866;53.458;14.540;2022-07-23T06:14:46;5.30;;;2.40;;
68076;SDS011;54866;53.458;14.540;2022-07-23T06:17:18;4.90;;;1.70;;
68076;SDS011;54866;53.458;14.540;2022-07-23T06:19:48;4.80;;;2.10;;
68076;SDS011;54866;53.458;14.540;2022-07-23T06:22:18;3.50;;;1.40;;
68076;SDS011;54866;53.458;14.540;2022-07-23T06:24:48;3.30;;;2.00;;
68076;SDS011;54866;53.458;14.540;2022-07-23T06:27:18;3.50;;;1.70;;
68076;SDS011;54866;53.458;14.540;2022-07-23T06:29:48;3.20;;;1.90;;
68076;SDS011;54866;53.458;14.540;2022-07-23T06:32:18;3.90;;;2.10;;
68076;SDS011;54866;53.458;14.540;2022-07-23T06:34:47;3.20;;;1.60;;
68076;SDS011;54866;53.458;14.540;2022-07-23T06:37:17;4.10;;;1.90;;
68076;SDS011;54866;53.458;14.540;2022-07-23T06:39:47;4.10;;;2.10;;
68076;SDS011;54866;53.458;14.540;2022-07-23T06:42:16;3.90;;;2.20;;
68076;SDS011;54866;53.458;14.540;2022-07-23T06:44:46;3.00;;;1.70;;
68076;SDS011;54866;53.458;14.540;2022-07-23T06:47:16;3.80;;;1.90;;
68076;SDS011;54866;53.458;14.540;2022-07-23T06:49:46;3.40;;;2.30;;
68076;SDS011;54866;53.458;14.540;2022-07-23T06:52:16;5.10;;;2.10;;
68076;SDS011;54866;53.458;14.540;2022-07-23T06:54:45;4.30;;;2.20;;
68076;SDS011;54866;53.458;14.540;2022-07-23T06:57:15;4.40;;;2.10;;
68076;SDS011;54866;53.458;14.540;2022-07-23T06:59:45;3.30;;;2.70;;
68076;SDS011;54866;53.458;14.540;2022-07-23T07:02:15;4.00;;;2.50;;
68076;SDS011;54866;53.458;14.540;2022-07-23T07:04:45;4.40;;;2.60;;
68076;SDS011;54866;53.458;14.540;2022-07-23T07:07:15;3.90;;;2.30;;
68076;SDS011;54866;53.458;14.540;2022-07-23T07:09:44;6.60;;;2.20;;
68076;SDS011;54866;53.458;14.540;2022-07-23T07:12:14;3.60;;;2.20;;
68076;SDS011;54866;53.458;14.540;2022-07-23T07:14:44;5.50;;;2.40;;
68076;SDS011;54866;53.458;14.540;2022-07-23T07:17:14;3.60;;;2.20;;
68076;SDS011;54866;53.458;14.540;2022-07-23T07:19:44;6.80;;;2.90;;
68076;SDS011;54866;53.458;14.540;2022-07-23T07:22:13;4.40;;;2.20;;
68076;SDS011;54866;53.458;14.540;2022-07-23T07:24:43;4.50;;;2.30;;
68076;SDS011;54866;53.458;14.540;2022-07-23T07:27:13;5.60;;;2.70;;
68076;SDS011;54866;53.458;14.540;2022-07-23T07:29:43;4.70;;;2.60;;
68076;SDS011;54866;53.458;14.540;2022-07-23T07:32:13;4.70;;;2.70;;
68076;SDS011;54866;53.458;14.540;2022-07-23T07:34:42;5.10;;;2.30;;
68076;SDS011;54866;53.458;14.540;2022-07-23T07:37:12;3.60;;;2.20;;
68076;SDS011;54866;53.458;14.540;2022-07-23T07:39:42;4.80;;;2.30;;
68076;SDS011;54866;53.458;14.540;2022-07-23T07:42:12;3.20;;;1.80;;
68076;SDS011;54866;53.458;14.540;2022-07-23T07:44:42;3.40;;;2.20;;
68076;SDS011;54866;53.458;14.540;2022-07-23T07:47:11;4.30;;;2.40;;
68076;SDS011;54866;53.458;14.540;2022-07-23T07:49:42;3.10;;;2.20;;
68076;SDS011;54866;53.458;14.540;2022-07-23T07:52:12;5.60;;;2.70;;
68076;SDS011;54866;53.458;14.540;2022-07-23T07:54:41;4.10;;;2.10;;
68076;SDS011;54866;53.458;14.540;2022-07-23T07:57:11;3.90;;;2.40;;
68076;SDS011;54866;53.458;14.540;2022-07-23T07:59:41;4.70;;;2.50;;
68076;SDS011;54866;53.458;14.540;2022-07-23T08:02:10;3.90;;;2.20;;
68076;SDS011;54866;53.458;14.540;2022-07-23T08:04:40;3.40;;;2.10;;
68076;SDS011;54866;53.458;14.540;2022-07-23T08:07:11;3.40;;;1.90;;
68076;SDS011;54866;53.458;14.540;2022-07-23T08:09:41;4.30;;;2.00;;
68076;SDS011;54866;53.458;14.540;2022-07-23T08:12:11;4.80;;;1.80;;
68076;SDS011;54866;53.458;14.540;2022-07-23T08:14:41;5.90;;;2.40;;
68076;SDS011;54866;53.458;14.540;2022-07-23T08:17:11;3.80;;;2.00;;
68076;SDS011;54866;53.458;14.540;2022-07-23T08:19:41;3.50;;;2.10;;
68076;SDS011;54866;53.458;14.540;2022-07-23T08:22:10;4.10;;;2.20;;
68076;SDS011;54866;53.458;14.540;2022-07-23T08:24:40;4.70;;;2.70;;
68076;SDS011;54866;53.458;14.540;2022-07-23T08:27:10;3.00;;;2.00;;
68076;SDS011;54866;53.458;14.540;2022-07-23T08:29:39;3.70;;;2.30;;
68076;SDS011;54866;53.458;14.540;2022-07-23T08:32:09;3.10;;;2.20;;
68076;SDS011;54866;53.458;14.540;2022-07-23T08:34:39;2.50;;;1.90;;
68076;SDS011;54866;53.458;14.540;2022-07-23T08:37:09;4.10;;;2.00;;
68076;SDS011;54866;53.458;14.540;2022-07-23T08:39:38;4.40;;;2.20;;
68076;SDS011;54866;53.458;14.540;2022-07-23T08:42:08;4.50;;;2.30;;
68076;SDS011;54866;53.458;14.540;2022-07-23T08:44:39;3.50;;;1.90;;
68076;SDS011;54866;53.458;14.540;2022-07-23T08:47:13;3.10;;;1.70;;
68076;SDS011;54866;53.458;14.540;2022-07-23T08:49:44;3.90;;;2.60;;
68076;SDS011;54866;53.458;14.540;2022-07-23T08:52:15;3.30;;;2.20;;
68076;SDS011;54866;53.458;14.540;2022-07-23T08:54:45;3.70;;;1.80;;
68076;SDS011;54866;53.458;14.540;2022-07-23T08:57:15;4.30;;;1.90;;
68076;SDS011;54866;53.458;14.540;2022-07-23T08:59:45;3.30;;;2.40;;
68076;SDS011;54866;53.458;14.540;2022-07-23T09:02:14;4.70;;;1.80;;
68076;SDS011;54866;53.458;14.540;2022-07-23T09:04:44;4.10;;;1.70;;
68076;SDS011;54866;53.458;14.540;2022-07-23T09:07:14;4.50;;;1.80;;
68076;SDS011;54866;53.458;14.540;2022-07-23T09:09:44;2.80;;;1.70;;
68076;SDS011;54866;53.458;14.540;2022-07-23T09:12:14;5.50;;;1.80;;
68076;SDS011;54866;53.458;14.540;2022-07-23T09:14:44;3.60;;;1.80;;
68076;SDS011;54866;53.458;14.540;2022-07-23T09:17:15;4.20;;;1.90;;
68076;SDS011;54866;53.458;14.540;2022-07-23T09:19:45;3.90;;;2.00;;
68076;SDS011;54866;53.458;14.540;2022-07-23T09:22:22;3.20;;;1.90;;
68076;SDS011;54866;53.458;14.540;2022-07-23T09:25:05;2.90;;;1.60;;
68076;SDS011;54866;53.458;14.540;2022-07-23T09:27:50;4.20;;;1.90;;
68076;SDS011;54866;53.458;14.540;2022-07-23T09:30:23;3.30;;;1.50;;
68076;SDS011;54866;53.458;14.540;2022-07-23T09:33:07;3.60;;;2.00;;
68076;SDS011;54866;53.458;14.540;2022-07-23T09:35:48;3.50;;;1.60;;
68076;SDS011;54866;53.458;14.540;2022-07-23T09:38:20;3.60;;;1.40;;
68076;SDS011;54866;53.458;14.540;2022-07-23T09:43:55;3.60;;;1.80;;
68076;SDS011;54866;53.458;14.540;2022-07-23T09:46:27;2.90;;;1.70;;
68076;SDS011;54866;53.458;14.540;2022-07-23T09:48:57;2.90;;;1.50;;
68076;SDS011;54866;53.458;14.540;2022-07-23T09:51:40;2.40;;;1.70;;
68076;SDS011;54866;53.458;14.540;2022-07-23T09:54:21;2.40;;;1.50;;
68076;SDS011;54866;53.458;14.540;2022-07-23T09:56:54;4.30;;;1.60;;
68076;SDS011;54866;53.458;14.540;2022-07-23T09:59:26;2.90;;;1.50;;
68076;SDS011;54866;53.458;14.540;2022-07-23T10:01:58;2.80;;;1.50;;
68076;SDS011;54866;53.458;14.540;2022-07-23T10:04:28;2.80;;;1.40;;
68076;SDS011;54866;53.458;14.540;2022-07-23T10:06:59;2.40;;;1.40;;
68076;SDS011;54866;53.458;14.540;2022-07-23T10:09:32;3.60;;;1.60;;
68076;SDS011;54866;53.458;14.540;2022-07-23T10:12:04;3.00;;;1.40;;
68076;SDS011;54866;53.458;14.540;2022-07-23T10:14:43;2.50;;;1.30;;
68076;SDS011;54866;53.458;14.540;2022-07-23T10:17:12;3.60;;;1.40;;
68076;SDS011;54866;53.458;14.540;2022-07-23T10:19:43;2.40;;;0.90;;
68076;SDS011;54866;53.458;14.540;2022-07-23T10:22:13;2.80;;;1.60;;
68076;SDS011;54866;53.458;14.540;2022-07-23T10:27:42;2.80;;;1.30;;
68076;SDS011;54866;53.458;14.540;2022-07-23T10:30:20;3.90;;;1.30;;
68076;SDS011;54866;53.458;14.540;2022-07-23T10:33:02;2.40;;;1.00;;
68076;SDS011;54866;53.458;14.540;2022-07-23T10:35:55;2.90;;;1.50;;
68076;SDS011;54866;53.458;14.540;2022-07-23T10:38:31;2.20;;;1.20;;
68076;SDS011;54866;53.458;14.540;2022-07-23T10:41:05;3.00;;;1.10;;
68076;SDS011;54866;53.458;14.540;2022-07-23T10:43:35;1.60;;;0.90;;
68076;SDS011;54866;53.458;14.540;2022-07-23T10:46:22;3.20;;;1.10;;
68076;SDS011;54866;53.458;14.540;2022-07-23T10:54:51;3.10;;;1.20;;
68076;SDS011;54866;53.458;14.540;2022-07-23T10:57:24;2.70;;;0.90;;
68076;SDS011;54866;53.458;14.540;2022-07-23T11:02:55;3.20;;;1.30;;
68076;SDS011;54866;53.458;14.540;2022-07-23T11:05:26;2.80;;;1.00;;
68076;SDS011;54866;53.458;14.540;2022-07-23T11:08:14;1.50;;;0.80;;
68076;SDS011;54866;53.458;14.540;2022-07-23T11:10:50;2.60;;;0.90;;
68076;SDS011;54866;53.458;14.540;2022-07-23T11:16:16;3.00;;;1.20;;
68076;SDS011;54866;53.458;14.540;2022-07-23T11:21:46;2.50;;;1.10;;
68076;SDS011;54866;53.458;14.540;2022-07-23T11:24:20;1.90;;;0.90;;
68076;SDS011;54866;53.458;14.540;2022-07-23T11:27:02;3.30;;;1.30;;
68076;SDS011;54866;53.458;14.540;2022-07-23T11:32:37;2.80;;;1.10;;
68076;SDS011;54866;53.458;14.540;2022-07-23T11:35:25;3.60;;;1.40;;
68076;SDS011;54866;53.458;14.540;2022-07-23T11:38:04;2.60;;;1.10;;
68076;SDS011;54866;53.458;14.540;2022-07-23T11:40:35;1.60;;;1.00;;
68076;SDS011;54866;53.458;14.540;2022-07-23T11:43:06;2.30;;;1.00;;
68076;SDS011;54866;53.458;14.540;2022-07-23T11:45:37;2.30;;;1.10;;
68076;SDS011;54866;53.458;14.540;2022-07-23T11:48:09;3.10;;;1.10;;
68076;SDS011;54866;53.458;14.540;2022-07-23T11:50:46;2.70;;;1.30;;
68076;SDS011;54866;53.458;14.540;2022-07-23T11:53:22;2.30;;;1.00;;
68076;SDS011;54866;53.458;14.540;2022-07-23T11:55:52;2.50;;;1.00;;
68076;SDS011;54866;53.458;14.540;2022-07-23T11:58:30;2.80;;;1.30;;
68076;SDS011;54866;53.458;14.540;2022-07-23T12:00:59;2.80;;;1.20;;
68076;SDS011;54866;53.458;14.540;2022-07-23T12:03:29;2.30;;;1.20;;
68076;SDS011;54866;53.458;14.540;2022-07-23T12:05:59;2.10;;;1.00;;
68076;SDS011;54866;53.458;14.540;2022-07-23T12:08:29;2.20;;;1.30;;
68076;SDS011;54866;53.458;14.540;2022-07-23T12:10:59;1.90;;;1.00;;
68076;SDS011;54866;53.458;14.540;2022-07-23T12:13:29;2.80;;;1.00;;
68076;SDS011;54866;53.458;14.540;2022-07-23T12:15:59;3.00;;;1.10;;
68076;SDS011;54866;53.458;14.540;2022-07-23T12:18:28;1.40;;;0.80;;
68076;SDS011;54866;53.458;14.540;2022-07-23T12:21:02;2.20;;;1.10;;
68076;SDS011;54866;53.458;14.540;2022-07-23T12:23:33;1.90;;;1.00;;
68076;SDS011;54866;53.458;14.540;2022-07-23T12:26:04;2.90;;;1.10;;
68076;SDS011;54866;53.458;14.540;2022-07-23T12:28:38;2.10;;;1.10;;
68076;SDS011;54866;53.458;14.540;2022-07-23T12:31:09;2.70;;;1.30;;
68076;SDS011;54866;53.458;14.540;2022-07-23T12:33:40;4.70;;;1.20;;
68076;SDS011;54866;53.458;14.540;2022-07-23T12:36:10;2.70;;;1.00;;
68076;SDS011;54866;53.458;14.540;2022-07-23T12:38:41;2.80;;;1.30;;
68076;SDS011;54866;53.458;14.540;2022-07-23T12:41:15;2.20;;;1.20;;
68076;SDS011;54866;53.458;14.540;2022-07-23T12:43:45;3.70;;;1.30;;
68076;SDS011;54866;53.458;14.540;2022-07-23T12:46:16;2.10;;;1.30;;
68076;SDS011;54866;53.458;14.540;2022-07-23T12:48:51;2.00;;;1.10;;
68076;SDS011;54866;53.458;14.540;2022-07-23T12:51:23;2.60;;;1.50;;
68076;SDS011;54866;53.458;14.540;2022-07-23T12:53:56;2.90;;;1.60;;
68076;SDS011;54866;53.458;14.540;2022-07-23T12:56:28;2.00;;;0.90;;
68076;SDS011;54866;53.458;14.540;2022-07-23T12:59:05;3.00;;;1.00;;
68076;SDS011;54866;53.458;14.540;2022-07-23T13:01:37;2.30;;;1.20;;
68076;SDS011;54866;53.458;14.540;2022-07-23T13:04:08;1.70;;;1.10;;
68076;SDS011;54866;53.458;14.540;2022-07-23T13:06:39;3.60;;;1.20;;
68076;SDS011;54866;53.458;14.540;2022-07-23T13:09:12;1.90;;;0.90;;
68076;SDS011;54866;53.458;14.540;2022-07-23T13:11:46;3.00;;;1.50;;
68076;SDS011;54866;53.458;14.540;2022-07-23T13:14:17;1.80;;;1.10;;
68076;SDS011;54866;53.458;14.540;2022-07-23T13:16:48;1.90;;;0.90;;
68076;SDS011;54866;53.458;14.540;2022-07-23T13:19:19;2.20;;;1.00;;
68076;SDS011;54866;53.458;14.540;2022-07-23T13:21:49;4.20;;;1.20;;
68076;SDS011;54866;53.458;14.540;2022-07-23T13:24:20;1.50;;;0.80;;
68076;SDS011;54866;53.458;14.540;2022-07-23T13:26:50;1.60;;;1.00;;
68076;SDS011;54866;53.458;14.540;2022-07-23T13:29:19;1.30;;;0.80;;
68076;SDS011;54866;53.458;14.540;2022-07-23T13:31:49;1.90;;;0.80;;
68076;SDS011;54866;53.458;14.540;2022-07-23T13:34:19;1.70;;;0.90;;
68076;SDS011;54866;53.458;14.540;2022-07-23T13:36:49;2.40;;;1.10;;
68076;SDS011;54866;53.458;14.540;2022-07-23T13:39:18;2.30;;;1.30;;
68076;SDS011;54866;53.458;14.540;2022-07-23T13:41:48;1.60;;;0.80;;
68076;SDS011;54866;53.458;14.540;2022-07-23T13:44:18;2.10;;;0.80;;
68076;SDS011;54866;53.458;14.540;2022-07-23T13:46:48;3.40;;;0.90;;
68076;SDS011;54866;53.458;14.540;2022-07-23T13:49:18;2.90;;;0.90;;
68076;SDS011;54866;53.458;14.540;2022-07-23T13:51:47;3.20;;;0.90;;
68076;SDS011;54866;53.458;14.540;2022-07-23T13:54:17;3.30;;;1.00;;
68076;SDS011;54866;53.458;14.540;2022-07-23T13:56:47;1.20;;;0.70;;
68076;SDS011;54866;53.458;14.540;2022-07-23T13:59:18;2.10;;;0.80;;
68076;SDS011;54866;53.458;14.540;2022-07-23T14:01:48;2.30;;;0.90;;
68076;SDS011;54866;53.458;14.540;2022-07-23T14:04:17;2.00;;;0.80;;
68076;SDS011;54866;53.458;14.540;2022-07-23T14:06:48;2.10;;;0.80;;
68076;SDS011;54866;53.458;14.540;2022-07-23T14:09:18;2.10;;;1.00;;
68076;SDS011;54866;53.458;14.540;2022-07-23T14:11:47;1.40;;;0.80;;
68076;SDS011;54866;53.458;14.540;2022-07-23T14:14:18;1.60;;;0.70;;
68076;SDS011;54866;53.458;14.540;2022-07-23T14:16:48;1.00;;;0.60;;
68076;SDS011;54866;53.458;14.540;2022-07-23T14:19:18;1.90;;;0.60;;
68076;SDS011;54866;53.458;14.540;2022-07-23T14:21:47;1.70;;;0.90;;
68076;SDS011;54866;53.458;14.540;2022-07-23T14:24:17;1.40;;;0.80;;
68076;SDS011;54866;53.458;14.540;2022-07-23T14:26:47;1.60;;;0.80;;
68076;SDS011;54866;53.458;14.540;2022-07-23T14:29:17;3.00;;;0.80;;
68076;SDS011;54866;53.458;14.540;2022-07-23T14:31:47;1.30;;;0.60;;
68076;SDS011;54866;53.458;14.540;2022-07-23T14:34:16;3.60;;;0.80;;
68076;SDS011;54866;53.458;14.540;2022-07-23T14:36:46;2.10;;;1.10;;
68076;SDS011;54866;53.458;14.540;2022-07-23T14:39:16;1.70;;;0.90;;
68076;SDS011;54866;53.458;14.540;2022-07-23T14:41:46;1.70;;;0.80;;
68076;SDS011;54866;53.458;14.540;2022-07-23T14:44:16;2.50;;;0.80;;
68076;SDS011;54866;53.458;14.540;2022-07-23T14:46:46;1.20;;;0.60;;
68076;SDS011;54866;53.458;14.540;2022-07-23T14:49:16;4.10;;;0.80;;
68076;SDS011;54866;53.458;14.540;2022-07-23T14:51:45;2.20;;;0.90;;
68076;SDS011;54866;53.458;14.540;2022-07-23T14:54:15;1.20;;;0.60;;
68076;SDS011;54866;53.458;14.540;2022-07-23T14:56:46;2.40;;;0.60;;
68076;SDS011;54866;53.458;14.540;2022-07-23T14:59:16;1.50;;;0.80;;
68076;SDS011;54866;53.458;14.540;2022-07-23T15:01:45;2.20;;;1.00;;
68076;SDS011;54866;53.458;14.540;2022-07-23T15:04:16;1.60;;;0.70;;
68076;SDS011;54866;53.458;14.540;2022-07-23T15:06:45;1.90;;;0.90;;
68076;SDS011;54866;53.458;14.540;2022-07-23T15:09:15;2.10;;;1.00;;
68076;SDS011;54866;53.458;14.540;2022-07-23T15:11:46;1.30;;;0.60;;
68076;SDS011;54866;53.458;14.540;2022-07-23T15:14:15;2.90;;;1.00;;
68076;SDS011;54866;53.458;14.540;2022-07-23T15:16:45;1.50;;;0.60;;
68076;SDS011;54866;53.458;14.540;2022-07-23T15:19:15;2.30;;;1.10;;